Time;durP1;ratioP1;P1;durP2;ratioP2;P2;SDS_P1;SDS_P2;PMS_P1;PMS_P2;Temp;Humidity;BMP_temperature;BMP_pressure;BME280_temperature;BME280_humidity;BME280_pressure;Samples;Min_cycle;Max_cycle;Signal;HPM_P1;HPM_P2
2022/01/30 00:01:26;;;;;;;1.27;0.80;;;;;;;;;;6238101;22;20163;-90
2022/01/30 00:04:46;;;;;;;1.70;1.03;;;;;;;;;;6219014;22;20190;-90
2022/01/30 00:07:54;;;;;;;2.87;1.40;;;;;;;;;;6219065;22;20156;-90
2022/01/30 00:11:12;;;;;;;0.90;0.80;;;;;;;;;;6221637;22;20210;-92
2022/01/30 00:14:21;;;;;;;1.43;0.80;;;;;;;;;;6220351;23;20195;-89
2022/01/30 00:17:34;;;;;;;1.43;1.00;;;;;;;;;;6219745;23;20176;-91
2022/01/30 00:20:45;;;;;;;1.67;0.80;;;;;;;;;;6220605;22;20210;-91
2022/01/30 00:50:15;;;;;;;1.67;1.00;;;;;;;;;;6175881;22;20195;-88
2022/01/30 00:53:21;;;;;;;1.63;0.90;;;;;;;;;;6218609;22;20187;-90
2022/01/30 00:59:23;;;;;;;2.43;1.10;;;;;;;;;;6268627;22;20210;-91
2022/01/30 01:02:32;;;;;;;1.60;0.97;;;;;;;;;;6268828;22;20167;-90
2022/01/30 01:05:47;;;;;;;1.47;0.80;;;;;;;;;;6268904;22;20162;-91
2022/01/30 01:08:57;;;;;;;1.87;1.10;;;;;;;;;;6269869;22;20170;-91
2022/01/30 01:25:01;;;;;;;1.40;0.90;;;;;;;;;;6122535;23;20321;31
2022/01/30 01:33:52;;;;;;;1.07;0.70;;;;;;;;;;6140608;23;20230;-89
2022/01/30 01:57:31;;;;;;;1.83;1.07;;;;;;;;;;6216859;22;20211;-91
2022/01/30 02:01:03;;;;;;;11.00;1.27;;;;;;;;;;6264919;23;20555;-90
2022/01/30 02:04:11;;;;;;;2.33;1.13;;;;;;;;;;6264582;22;20266;-90
2022/01/30 02:10:47;;;;;;;2.60;1.00;;;;;;;;;;6265196;22;20239;-90
2022/01/30 02:14:16;;;;;;;1.33;0.90;;;;;;;;;;6265993;22;20490;-90
2022/01/30 02:30:08;;;;;;;1.67;1.10;;;;;;;;;;6197591;22;20325;-90
2022/01/30 03:55:25;;;;;;;2.13;1.00;;;;;;;;;;6173410;22;20215;-90
2022/01/30 03:58:30;;;;;;;2.83;1.20;;;;;;;;;;6228935;23;20183;-90
2022/01/30 04:01:37;;;;;;;4.53;1.47;;;;;;;;;;6230849;22;20163;-91
2022/01/30 04:04:43;;;;;;;7.97;1.67;;;;;;;;;;6230089;22;20215;-90
2022/01/30 04:07:48;;;;;;;6.40;1.40;;;;;;;;;;6235449;22;20175;-89
2022/01/30 04:11:16;;;;;;;5.87;1.83;;;;;;;;;;6230324;22;20159;-90
2022/01/30 04:14:34;;;;;;;5.83;1.37;;;;;;;;;;6232271;22;20167;-91
2022/01/30 04:17:46;;;;;;;3.97;1.20;;;;;;;;;;6232795;22;20187;-90
2022/01/30 04:21:08;;;;;;;2.43;1.20;;;;;;;;;;6231906;23;20203;-91
2022/01/30 04:24:32;;;;;;;3.17;1.30;;;;;;;;;;6234517;23;20191;-90
2022/01/30 04:28:12;;;;;;;8.27;1.63;;;;;;;;;;6224286;23;20191;-91
2022/01/30 04:31:36;;;;;;;2.33;0.93;;;;;;;;;;6233105;23;20167;-88
2022/01/30 04:35:00;;;;;;;2.43;1.10;;;;;;;;;;6231355;22;20167;-89
2022/01/30 04:38:31;;;;;;;5.77;1.10;;;;;;;;;;6231257;23;20171;-90
2022/01/30 04:42:02;;;;;;;4.00;1.10;;;;;;;;;;6232121;23;20171;-91
2022/01/30 04:53:03;;;;;;;3.30;1.13;;;;;;;;;;6213020;23;20239;-91
2022/01/30 04:56:53;;;;;;;4.87;1.30;;;;;;;;;;6231280;23;20190;-91
2022/01/30 05:04:28;;;;;;;3.47;1.67;;;;;;;;;;6231973;23;20210;-91
2022/01/30 05:07:55;;;;;;;2.47;1.20;;;;;;;;;;6229873;23;20223;-91
2022/01/30 05:11:07;;;;;;;5.80;1.10;;;;;;;;;;6229635;23;20305;-90
2022/01/30 05:14:37;;;;;;;3.13;1.00;;;;;;;;;;6231217;23;20186;-89
2022/01/30 05:18:12;;;;;;;3.50;1.37;;;;;;;;;;6209330;23;20233;-90
2022/01/30 05:21:42;;;;;;;3.33;1.10;;;;;;;;;;6231503;23;20170;-89
2022/01/30 05:25:06;;;;;;;4.57;1.23;;;;;;;;;;6230552;23;20199;-90
2022/01/30 05:28:18;;;;;;;6.23;1.53;;;;;;;;;;6229377;23;20172;-91
2022/01/30 05:31:38;;;;;;;2.93;1.30;;;;;;;;;;6233797;23;20290;-91
2022/01/30 05:35:10;;;;;;;2.57;1.10;;;;;;;;;;6227833;23;20167;-91
2022/01/30 05:38:37;;;;;;;6.93;1.60;;;;;;;;;;6232636;22;20163;-91
2022/01/30 05:41:43;;;;;;;4.90;1.60;;;;;;;;;;6231637;22;20254;-92
2022/01/30 05:45:07;;;;;;;5.87;1.87;;;;;;;;;;6232514;22;20191;-90
2022/01/30 05:48:35;;;;;;;6.83;1.87;;;;;;;;;;6236625;22;20194;-91
2022/01/30 05:51:58;;;;;;;6.27;1.83;;;;;;;;;;6235939;23;20168;-89
2022/01/30 05:55:10;;;;;;;9.27;1.80;;;;;;;;;;6232468;22;20179;-87
2022/01/30 05:58:15;;;;;;;11.07;2.00;;;;;;;;;;6231122;23;20166;-89
2022/01/30 06:01:35;;;;;;;6.93;1.90;;;;;;;;;;6230776;23;20215;-90
2022/01/30 06:04:53;;;;;;;5.83;1.87;;;;;;;;;;6239335;23;20175;-92
2022/01/30 06:08:09;;;;;;;5.80;1.90;;;;;;;;;;6231965;22;20156;-91
2022/01/30 06:11:15;;;;;;;8.47;1.90;;;;;;;;;;6231768;23;20611;-91
2022/01/30 06:14:21;;;;;;;8.13;1.90;;;;;;;;;;6232564;23;20240;-91
2022/01/30 06:17:26;;;;;;;8.50;1.70;;;;;;;;;;6231020;22;20243;-91
2022/01/30 06:20:37;;;;;;;7.00;1.50;;;;;;;;;;6232034;23;20295;-88
2022/01/30 06:24:01;;;;;;;5.53;1.37;;;;;;;;;;6233720;23;20230;-90
2022/01/30 06:27:27;;;;;;;5.93;2.07;;;;;;;;;;6233001;23;20164;-92
2022/01/30 06:31:01;;;;;;;11.67;2.60;;;;;;;;;;6193205;23;20191;-89
2022/01/30 06:34:22;;;;;;;12.07;2.60;;;;;;;;;;6233337;23;20291;-90
2022/01/30 06:37:46;;;;;;;10.87;2.40;;;;;;;;;;6232831;23;20171;-90
2022/01/30 06:41:11;;;;;;;8.20;2.00;;;;;;;;;;6219393;22;20294;-91
2022/01/30 06:44:37;;;;;;;10.40;2.90;;;;;;;;;;6232187;22;20239;-90
2022/01/30 06:48:01;;;;;;;8.70;2.10;;;;;;;;;;6232173;23;20167;-90
2022/01/30 06:51:25;;;;;;;7.03;2.17;;;;;;;;;;6230844;22;20187;-92
2022/01/30 06:54:49;;;;;;;13.23;2.40;;;;;;;;;;6233069;23;20180;-90
2022/01/30 06:58:14;;;;;;;19.33;2.23;;;;;;;;;;6231381;22;20175;-91
2022/01/30 07:01:39;;;;;;;12.20;2.53;;;;;;;;;;6232311;23;20155;-91
2022/01/30 07:05:06;;;;;;;11.17;2.50;;;;;;;;;;6234221;23;20179;-92
2022/01/30 07:08:25;;;;;;;15.53;2.73;;;;;;;;;;6229872;23;20172;-89
2022/01/30 07:11:31;;;;;;;10.03;2.03;;;;;;;;;;6232294;22;20151;-90
2022/01/30 07:14:36;;;;;;;11.30;2.00;;;;;;;;;;6230918;23;20218;-88
2022/01/30 07:17:43;;;;;;;9.40;2.57;;;;;;;;;;6231224;22;20187;-89
2022/01/30 07:20:48;;;;;;;10.77;2.03;;;;;;;;;;6231546;23;20200;-88
2022/01/30 07:23:53;;;;;;;9.90;1.80;;;;;;;;;;6231907;23;20175;-91
2022/01/30 07:26:59;;;;;;;11.83;1.93;;;;;;;;;;6231512;22;20200;-89
2022/01/30 07:30:04;;;;;;;13.67;2.03;;;;;;;;;;6231432;23;20171;-92
2022/01/30 07:33:11;;;;;;;8.37;1.73;;;;;;;;;;6229621;23;20158;-90
2022/01/30 07:36:16;;;;;;;9.17;1.73;;;;;;;;;;6233858;22;20239;-90
2022/01/30 07:39:21;;;;;;;16.60;2.50;;;;;;;;;;6230155;22;20163;-90
2022/01/30 07:42:27;;;;;;;14.97;2.87;;;;;;;;;;6227620;23;20174;-90
2022/01/30 07:45:33;;;;;;;10.40;2.13;;;;;;;;;;6229419;23;20238;-92
2022/01/30 07:48:39;;;;;;;13.73;1.93;;;;;;;;;;6229182;23;20175;-90
2022/01/30 07:51:44;;;;;;;8.40;1.77;;;;;;;;;;6227299;23;20186;-90
2022/01/30 07:54:51;;;;;;;12.17;2.47;;;;;;;;;;6227982;23;20163;-92
2022/01/30 07:57:56;;;;;;;13.80;2.13;;;;;;;;;;6228805;23;20182;-92
2022/01/30 08:01:02;;;;;;;10.30;2.40;;;;;;;;;;6230180;22;20242;-91
2022/01/30 08:04:08;;;;;;;8.17;1.83;;;;;;;;;;6229684;23;20332;-92
2022/01/30 08:07:13;;;;;;;9.10;2.13;;;;;;;;;;6227146;22;20614;-90
2022/01/30 08:10:19;;;;;;;5.90;1.70;;;;;;;;;;6232276;23;20258;-90
2022/01/30 08:13:31;;;;;;;17.93;2.30;;;;;;;;;;6228685;23;20179;-91
2022/01/30 08:16:42;;;;;;;10.63;2.10;;;;;;;;;;6232798;22;20211;-92
2022/01/30 08:19:49;;;;;;;10.00;2.00;;;;;;;;;;6232475;23;20168;-90
2022/01/30 08:22:54;;;;;;;10.70;2.17;;;;;;;;;;6228569;22;20167;-92
2022/01/30 08:26:00;;;;;;;8.20;1.33;;;;;;;;;;6227747;22;20255;-91
2022/01/30 08:29:05;;;;;;;10.30;2.13;;;;;;;;;;6234363;23;20170;-90
2022/01/30 08:32:11;;;;;;;8.03;1.73;;;;;;;;;;6232996;22;20147;-90
2022/01/30 08:35:20;;;;;;;11.07;2.90;;;;;;;;;;6232281;23;20650;-89
2022/01/30 08:38:25;;;;;;;8.90;2.10;;;;;;;;;;6230554;23;20287;-90
2022/01/30 08:41:30;;;;;;;5.73;1.80;;;;;;;;;;6230111;23;20174;-90
2022/01/30 08:44:35;;;;;;;14.87;2.00;;;;;;;;;;6226434;22;20194;-90
2022/01/30 08:47:41;;;;;;;10.47;1.77;;;;;;;;;;6228888;22;20147;-90
2022/01/30 08:50:48;;;;;;;9.53;1.50;;;;;;;;;;6230399;22;20166;-90
2022/01/30 08:53:53;;;;;;;8.43;1.77;;;;;;;;;;6227581;22;20167;-90
2022/01/30 08:56:58;;;;;;;18.23;2.47;;;;;;;;;;6227766;22;20248;-90
2022/01/30 09:00:05;;;;;;;12.37;1.97;;;;;;;;;;6230170;22;20167;-90
2022/01/30 09:03:11;;;;;;;18.73;1.93;;;;;;;;;;6230560;22;20166;-91
2022/01/30 09:06:17;;;;;;;13.20;2.20;;;;;;;;;;6229202;22;20195;-93
2022/01/30 09:09:22;;;;;;;13.97;1.93;;;;;;;;;;6232096;22;20234;-91
2022/01/30 09:12:27;;;;;;;7.80;1.80;;;;;;;;;;6230690;22;20618;-89
2022/01/30 09:15:40;;;;;;;15.43;2.90;;;;;;;;;;6230436;22;20191;-90
2022/01/30 09:18:45;;;;;;;8.63;2.10;;;;;;;;;;6232462;23;20162;-92
2022/01/30 09:21:52;;;;;;;8.73;2.50;;;;;;;;;;6232219;23;20226;-91
2022/01/30 09:24:57;;;;;;;11.33;2.10;;;;;;;;;;6232204;23;20194;-92
2022/01/30 09:28:02;;;;;;;17.20;2.73;;;;;;;;;;6233423;23;20195;-91
2022/01/30 09:31:08;;;;;;;9.90;2.00;;;;;;;;;;6232665;22;20245;-90
2022/01/30 09:34:13;;;;;;;10.00;1.80;;;;;;;;;;6232907;23;20186;-91
2022/01/30 09:37:20;;;;;;;10.03;2.33;;;;;;;;;;6232867;22;20190;-90
2022/01/30 09:40:25;;;;;;;11.90;2.30;;;;;;;;;;6232108;22;20171;-89
2022/01/30 09:43:35;;;;;;;8.13;2.20;;;;;;;;;;6230549;23;20670;-89
2022/01/30 09:46:42;;;;;;;14.63;2.03;;;;;;;;;;6230350;23;20167;-91
2022/01/30 09:49:49;;;;;;;11.43;2.30;;;;;;;;;;6231583;22;20218;-90
2022/01/30 09:52:56;;;;;;;12.43;1.97;;;;;;;;;;6233013;22;20175;-91
2022/01/30 09:56:03;;;;;;;16.27;2.40;;;;;;;;;;6232458;23;20194;-89
2022/01/30 09:59:08;;;;;;;12.10;2.20;;;;;;;;;;6232382;23;20164;-92
2022/01/30 10:02:13;;;;;;;10.73;2.07;;;;;;;;;;6232547;23;20191;-92
2022/01/30 10:05:19;;;;;;;18.00;2.23;;;;;;;;;;6234458;22;20194;-92
2022/01/30 10:08:31;;;;;;;15.13;2.83;;;;;;;;;;6232610;22;20203;-93
2022/01/30 10:12:01;;;;;;;7.77;1.33;;;;;;;;;;6236412;22;20197;-92
2022/01/30 10:15:35;;;;;;;9.80;1.80;;;;;;;;;;6237365;22;20155;-91
2022/01/30 10:18:44;;;;;;;11.17;1.73;;;;;;;;;;6238400;22;20167;-92
2022/01/30 10:21:50;;;;;;;7.60;1.73;;;;;;;;;;6235197;23;20183;-89
2022/01/30 10:24:58;;;;;;;11.37;2.93;;;;;;;;;;6234454;22;20175;-89
2022/01/30 10:28:09;;;;;;;13.83;2.27;;;;;;;;;;6235042;22;20156;-89
2022/01/30 10:31:17;;;;;;;13.07;2.57;;;;;;;;;;6236358;22;20150;-92
2022/01/30 10:34:23;;;;;;;11.03;2.43;;;;;;;;;;6236277;22;20247;-91
2022/01/30 10:37:29;;;;;;;13.97;2.40;;;;;;;;;;6235604;23;20247;-89
2022/01/30 10:40:39;;;;;;;11.40;1.83;;;;;;;;;;6236178;22;20150;-91
2022/01/30 10:43:50;;;;;;;6.70;1.27;;;;;;;;;;6236254;22;20216;-91
2022/01/30 10:46:55;;;;;;;16.67;1.90;;;;;;;;;;6234804;22;20176;-90
2022/01/30 10:50:03;;;;;;;11.40;2.13;;;;;;;;;;6235257;22;20171;-92
2022/01/30 10:53:09;;;;;;;9.40;2.00;;;;;;;;;;6234828;22;20166;-91
2022/01/30 10:56:21;;;;;;;11.93;2.10;;;;;;;;;;6235221;22;20174;-91
2022/01/30 10:59:26;;;;;;;12.57;2.50;;;;;;;;;;6236804;22;20187;-91
2022/01/30 11:02:37;;;;;;;13.37;3.00;;;;;;;;;;6236004;23;20212;-89
2022/01/30 11:05:55;;;;;;;9.03;2.27;;;;;;;;;;6236001;22;20230;-91
2022/01/30 11:09:06;;;;;;;6.40;1.97;;;;;;;;;;6234683;22;20172;-90
2022/01/30 11:12:15;;;;;;;15.33;2.57;;;;;;;;;;6233035;22;20205;-89
2022/01/30 11:15:35;;;;;;;12.07;2.00;;;;;;;;;;6233751;23;20203;-90
2022/01/30 11:18:43;;;;;;;13.27;2.50;;;;;;;;;;6233669;22;20171;-90
2022/01/30 11:21:51;;;;;;;10.47;1.90;;;;;;;;;;6233333;22;20583;-90
2022/01/30 11:25:00;;;;;;;11.60;2.40;;;;;;;;;;6233346;22;20167;-90
2022/01/30 11:28:10;;;;;;;11.00;1.70;;;;;;;;;;6232723;22;20216;-89
2022/01/30 11:31:17;;;;;;;8.90;2.00;;;;;;;;;;6231803;22;20228;-90
2022/01/30 11:34:23;;;;;;;8.70;1.63;;;;;;;;;;6233527;22;20171;-89
2022/01/30 11:37:29;;;;;;;8.83;2.30;;;;;;;;;;6232992;22;20199;-89
2022/01/30 11:40:34;;;;;;;6.00;1.87;;;;;;;;;;6232124;23;20249;-90
2022/01/30 11:43:43;;;;;;;13.60;2.03;;;;;;;;;;6236802;22;20170;-91
2022/01/30 11:47:09;;;;;;;6.93;1.70;;;;;;;;;;6232566;22;20194;-91
2022/01/30 11:50:14;;;;;;;10.80;1.90;;;;;;;;;;6231515;22;20214;-90
2022/01/30 11:53:28;;;;;;;23.93;2.33;;;;;;;;;;6228990;23;20171;-89
2022/01/30 11:56:33;;;;;;;14.33;1.90;;;;;;;;;;6228304;23;20191;-92
2022/01/30 11:59:40;;;;;;;9.70;1.97;;;;;;;;;;6230844;22;20171;-91
2022/01/30 12:02:45;;;;;;;16.50;2.00;;;;;;;;;;6231444;23;20182;-90
2022/01/30 12:05:50;;;;;;;10.17;2.33;;;;;;;;;;6230348;23;20190;-90
2022/01/30 12:08:56;;;;;;;8.97;1.83;;;;;;;;;;6229620;23;20167;-88
2022/01/30 12:12:05;;;;;;;21.03;2.37;;;;;;;;;;6232669;22;20240;-89
2022/01/30 12:15:32;;;;;;;9.27;1.90;;;;;;;;;;6231880;22;20155;-91
2022/01/30 12:18:45;;;;;;;10.23;1.90;;;;;;;;;;6231913;22;20235;-90
2022/01/30 12:21:50;;;;;;;10.37;2.10;;;;;;;;;;6229323;23;20158;-88
2022/01/30 12:25:15;;;;;;;9.47;2.00;;;;;;;;;;6231535;23;20181;-90
2022/01/30 12:28:20;;;;;;;9.47;1.50;;;;;;;;;;6229037;23;20179;-90
2022/01/30 12:31:30;;;;;;;21.57;3.67;;;;;;;;;;6230140;22;20232;-90
2022/01/30 12:34:35;;;;;;;12.10;2.83;;;;;;;;;;6231241;22;20190;-91
2022/01/30 12:37:40;;;;;;;21.37;4.50;;;;;;;;;;6228849;23;20254;-90
2022/01/30 12:40:46;;;;;;;26.40;4.80;;;;;;;;;;6229345;22;20222;-93
2022/01/30 12:43:53;;;;;;;11.47;2.27;;;;;;;;;;6227611;22;20248;-91
2022/01/30 12:47:00;;;;;;;8.67;2.13;;;;;;;;;;6229356;23;20178;-89
2022/01/30 12:50:06;;;;;;;8.07;2.00;;;;;;;;;;6230922;22;20622;-92
2022/01/30 12:53:11;;;;;;;8.93;1.80;;;;;;;;;;6228886;23;20163;-89
2022/01/30 12:56:18;;;;;;;11.10;2.10;;;;;;;;;;6231120;22;20192;-88
2022/01/30 12:59:24;;;;;;;9.90;2.13;;;;;;;;;;6232346;23;20150;-91
2022/01/30 13:02:34;;;;;;;11.40;1.90;;;;;;;;;;6231123;22;20210;-89
2022/01/30 13:05:45;;;;;;;10.83;2.20;;;;;;;;;;6231589;22;20198;-90
2022/01/30 13:08:54;;;;;;;8.53;1.53;;;;;;;;;;6231586;23;20159;-90
2022/01/30 13:12:02;;;;;;;12.67;2.37;;;;;;;;;;6229367;22;20158;-88
2022/01/30 13:15:38;;;;;;;6.57;1.73;;;;;;;;;;6229448;23;20599;-88
2022/01/30 13:18:50;;;;;;;11.53;2.33;;;;;;;;;;6231728;22;20242;-89
2022/01/30 13:21:55;;;;;;;10.77;2.10;;;;;;;;;;6232545;22;20168;-90
2022/01/30 13:25:02;;;;;;;8.07;1.60;;;;;;;;;;6230893;23;20176;-89
2022/01/30 13:28:07;;;;;;;13.47;2.00;;;;;;;;;;6233018;22;20182;-87
2022/01/30 13:31:16;;;;;;;6.83;1.60;;;;;;;;;;6231743;22;20151;-88
2022/01/30 13:34:23;;;;;;;11.60;2.10;;;;;;;;;;6230402;23;20178;-91
2022/01/30 13:37:29;;;;;;;17.00;2.10;;;;;;;;;;6229192;23;20171;-90
2022/01/30 13:40:39;;;;;;;7.30;1.73;;;;;;;;;;6228491;23;20163;-90
2022/01/30 13:43:51;;;;;;;11.10;1.70;;;;;;;;;;6228698;23;20198;-91
2022/01/30 13:47:00;;;;;;;6.47;1.70;;;;;;;;;;6228862;22;20239;-92
2022/01/30 13:50:15;;;;;;;9.50;1.50;;;;;;;;;;6230050;22;20162;-91
2022/01/30 13:53:28;;;;;;;10.93;1.67;;;;;;;;;;6231508;22;20171;-90
2022/01/30 13:56:34;;;;;;;7.83;1.80;;;;;;;;;;6227575;22;20203;-88
2022/01/30 13:59:40;;;;;;;12.93;2.20;;;;;;;;;;6227192;23;20183;-89
2022/01/30 14:02:55;;;;;;;12.47;1.97;;;;;;;;;;6231254;22;20178;-91
2022/01/30 14:06:01;;;;;;;5.90;1.77;;;;;;;;;;6229348;23;20654;-91
2022/01/30 14:09:10;;;;;;;20.70;2.73;;;;;;;;;;6231630;23;20192;-91
2022/01/30 14:12:16;;;;;;;12.40;1.93;;;;;;;;;;6231202;22;20190;-89
2022/01/30 23:00:27;;;;;;;19.40;2.80;;;;;;;;;;6156064;23;20195;-87
2022/01/30 23:03:59;;;;;;;7.87;2.17;;;;;;;;;;6186849;23;20215;-91
2022/01/30 23:07:05;;;;;;;13.77;2.90;;;;;;;;;;6187601;23;20237;-89
2022/01/30 23:10:11;;;;;;;18.27;3.00;;;;;;;;;;6187550;23;20280;-89
2022/01/30 23:13:16;;;;;;;19.90;3.10;;;;;;;;;;6185926;23;20196;-88
2022/01/30 23:16:23;;;;;;;15.17;2.73;;;;;;;;;;6185964;23;20183;-88
2022/01/30 23:19:29;;;;;;;18.47;2.73;;;;;;;;;;6186028;23;20509;-88
2022/01/30 23:22:34;;;;;;;19.17;2.83;;;;;;;;;;6186872;23;20171;-87
2022/01/30 23:25:39;;;;;;;21.43;2.33;;;;;;;;;;6185469;23;20192;-89
2022/01/30 23:28:45;;;;;;;17.47;2.80;;;;;;;;;;6187027;23;20615;-88
2022/01/30 23:31:52;;;;;;;20.00;4.33;;;;;;;;;;6184730;23;20615;-87
2022/01/30 23:34:58;;;;;;;14.07;2.67;;;;;;;;;;6184610;23;20635;-89
2022/01/30 23:38:16;;;;;;;20.37;2.70;;;;;;;;;;6183470;23;20241;-89
2022/01/30 23:41:25;;;;;;;19.13;3.00;;;;;;;;;;6185975;23;20179;-88
2022/01/30 23:44:34;;;;;;;14.97;2.60;;;;;;;;;;6183698;23;20171;-88
2022/01/30 23:47:41;;;;;;;17.53;2.60;;;;;;;;;;6186579;23;20191;-86
2022/01/30 23:50:47;;;;;;;14.80;2.47;;;;;;;;;;6187294;23;20304;-89
2022/01/30 23:53:52;;;;;;;17.90;2.57;;;;;;;;;;6187337;23;20207;-93
2022/01/30 23:56:59;;;;;;;25.93;3.20;;;;;;;;;;6185418;23;20172;-89
